SKCC

Camilo Daza International Airport

Cúcuta, Colombia
TAF SKCC 162300Z 1700/1724 35008KT 9999 FEW023 BECMG 1701/1703 VRB02KT TEMPO 1703/1706 VCSH SCT017TCU TEMPO 1709/1713 5000 BR TX30/1718Z TN22/1711Z
Issued Valid From Valid To
Jan-16 @ 23:00 UTC
(6 hours ago)
Jan-17 @ 00:00 UTC
(5 hours ago)
Jan-18 @ 00:00 UTC
(in 19 hours)
Expired Click to View Jan-17 @ 00:00 to Jan-17 @ 01:00
TAF SKCC 162300Z 1700/1724 35008KT 9999 FEW023
Wind Visibility Clouds
350° at 8 knots 10,000+ meters
  • Few at 2,300' AGL
Becoming Jan-17 @ 01:00 to Jan-18 @ 00:00
BECMG 1701/1703 VRB02KT
Wind Visibility Clouds
Variable at 2 knots 10,000+ meters
  • Few at 2,300' AGL
Temporary Jan-17 @ 03:00 to Jan-17 @ 06:00
TEMPO 1703/1706 VCSH SCT017TCU
Clouds
  • Scattered at 1,700' AGL
Temporary Jan-17 @ 09:00 to Jan-17 @ 13:00
TEMPO 1709/1713 5000 BR TX30/1718Z TN22/1711Z
Visibility Conditions
5,005 meters
  • Mist
TAF SKCC 162300Z 1700/1724 35008KT 9999 FEW023 BECMG 1701/1703 VRB02KT TEMPO 1703/1706 VCSH SCT017TCU TEMPO 1709/1713 5000 BR TX30/1718Z TN22/1711Z
Issued Jan-16 @ 23:00 UTC
(6 hours ago)
Valid From Jan-17 @ 00:00 UTC
(5 hours ago)
Valid To Jan-18 @ 00:00 UTC
(in 19 hours)
Jan-17 @ 00:00 - Jan-17 @ 01:00
Wind Visibility
350° at 8 knots 10,000+ meters
Clouds
  • Few at 2,300' AGL
Becoming Jan-17 @ 01:00 - Jan-18 @ 00:00
Wind Visibility
Variable at 2 knots 10,000+ meters
Clouds
  • Few at 2,300' AGL
Temporary Jan-17 @ 03:00 - Jan-17 @ 06:00
Clouds
  • Scattered at 1,700' AGL
Temporary Jan-17 @ 09:00 - Jan-17 @ 13:00
Conditions
  • Mist